Time;durP1;ratioP1;P1;durP2;ratioP2;P2;SDS_P1;SDS_P2;PMS_P1;PMS_P2;Temp;Humidity;BMP_temperature;BMP_pressure;BME280_temperature;BME280_humidity;BME280_pressure;Samples;Min_cycle;Max_cycle;Signal;HPM_P1;HPM_P2
2022/09/03 00:01:04;;;;;;;1.90;0.65;;;18.40;74.40;;;;;;4969486;28;20304;-69
2022/09/03 00:03:46;;;;;;;1.48;0.60;;;18.40;74.40;;;;;;4965950;28;20156;-73
2022/09/03 00:06:21;;;;;;;2.13;0.60;;;18.40;75.20;;;;;;4969037;28;20283;-71
2022/09/03 00:09:02;;;;;;;1.15;0.57;;;18.40;74.70;;;;;;4970106;28;20051;-72
2022/09/03 00:11:43;;;;;;;0.65;0.40;;;18.30;74.70;;;;;;4968332;28;20038;-71
2022/09/03 00:14:18;;;;;;;1.40;0.60;;;18.30;74.70;;;;;;4969775;28;20039;-72
2022/09/03 00:17:18;;;;;;;1.58;0.50;;;18.30;74.90;;;;;;4968959;28;20496;-71
2022/09/03 00:20:02;;;;;;;1.38;0.60;;;18.30;75.00;;;;;;4945154;28;20058;-72
2022/09/03 00:22:33;;;;;;;3.17;0.57;;;18.30;75.20;;;;;;4966323;28;20047;-72
2022/09/03 00:25:03;;;;;;;1.70;0.80;;;18.20;75.20;;;;;;4963352;28;20510;-69
2022/09/03 00:27:36;;;;;;;3.03;0.43;;;18.10;75.20;;;;;;4968571;28;20035;-69
2022/09/03 00:30:12;;;;;;;1.67;0.50;;;18.10;75.40;;;;;;4969775;28;20509;-69
2022/09/03 00:33:09;;;;;;;1.55;0.57;;;18.10;75.60;;;;;;4972788;28;20130;-70
2022/09/03 00:36:02;;;;;;;2.17;0.40;;;18.10;75.90;;;;;;4965331;28;20492;-70
2022/09/03 00:38:31;;;;;;;1.13;0.50;;;18.00;75.80;;;;;;4969354;28;20039;-70
2022/09/03 00:41:21;;;;;;;1.75;0.50;;;17.90;75.90;;;;;;4960361;28;20078;-70
2022/09/03 00:43:53;;;;;;;3.50;0.80;;;18.00;76.20;;;;;;4967484;28;20392;-70
2022/09/03 00:46:19;;;;;;;3.22;0.60;;;17.90;76.50;;;;;;4969061;28;20493;-70
2022/09/03 00:48:53;;;;;;;1.30;0.40;;;17.90;76.60;;;;;;4969190;28;20050;-70
2022/09/03 00:51:43;;;;;;;1.83;0.57;;;17.80;76.70;;;;;;4969743;28;20141;-70
2022/09/03 00:54:09;;;;;;;1.23;0.57;;;17.80;77.10;;;;;;4962639;28;20077;-69
2022/09/03 00:57:04;;;;;;;1.70;0.28;;;17.70;77.10;;;;;;4969343;28;20070;-71
2022/09/03 01:00:01;;;;;;;0.88;0.40;;;17.70;77.40;;;;;;4967494;28;20050;-70
2022/09/03 01:02:37;;;;;;;1.80;0.45;;;17.70;77.40;;;;;;4963386;28;20047;-70
2022/09/03 01:05:17;;;;;;;1.60;0.57;;;17.60;77.70;;;;;;4966038;28;20051;-70
2022/09/03 01:07:54;;;;;;;3.10;0.90;;;17.60;77.90;;;;;;4969544;28;20069;-69
2022/09/03 01:10:44;;;;;;;0.85;0.43;;;17.60;77.80;;;;;;4968930;28;20065;-70
2022/09/03 01:13:16;;;;;;;1.15;0.45;;;17.50;78.00;;;;;;4971137;28;20058;-69
2022/09/03 01:16:09;;;;;;;2.78;0.70;;;17.50;78.10;;;;;;4967992;28;20050;-70
2022/09/03 01:18:47;;;;;;;2.47;0.30;;;17.50;78.60;;;;;;4967887;28;20121;-70
2022/09/03 01:21:41;;;;;;;1.50;0.40;;;17.50;78.70;;;;;;4966305;28;20265;-71
2022/09/03 01:24:28;;;;;;;2.00;0.52;;;17.40;78.80;;;;;;4968804;28;20054;-70
2022/09/03 01:26:54;;;;;;;;;;;17.40;78.90;;;;;;4970629;28;20138;-70
2022/09/03 01:29:35;;;;;;;0.85;0.40;;;17.40;79.40;;;;;;4968417;28;20035;-70
2022/09/03 01:32:20;;;;;;;1.27;0.30;;;17.40;79.00;;;;;;4968499;28;20042;-70
2022/09/03 01:34:57;;;;;;;1.92;0.63;;;17.40;79.40;;;;;;4971370;28;20039;-70
2022/09/03 01:37:37;;;;;;;1.90;0.45;;;17.30;79.30;;;;;;4969151;28;20121;-70
2022/09/03 01:40:21;;;;;;;1.77;0.47;;;17.30;79.50;;;;;;4972039;28;20042;-70
2022/09/03 01:43:21;;;;;;;0.95;0.43;;;17.30;79.70;;;;;;4972579;28;20043;-70
2022/09/03 01:46:00;;;;;;;0.47;0.20;;;17.30;79.90;;;;;;4970837;28;20133;-70
2022/09/03 01:48:52;;;;;;;1.75;0.45;;;17.30;80.10;;;;;;4970936;28;20046;-70
2022/09/03 01:51:28;;;;;;;1.65;0.50;;;17.30;80.40;;;;;;4972752;28;20097;-70
2022/09/03 01:53:56;;;;;;;2.17;0.40;;;17.30;81.10;;;;;;4971636;28;20090;-70
2022/09/03 01:56:50;;;;;;;4.45;0.50;;;17.30;80.70;;;;;;4970968;28;20441;-70
2022/09/03 01:59:29;;;;;;;0.88;0.40;;;17.30;80.70;;;;;;4967720;28;20559;-70
2022/09/03 02:02:05;;;;;;;1.13;0.38;;;17.30;81.30;;;;;;4968696;28;20046;-70
2022/09/03 02:04:31;;;;;;;1.00;0.40;;;17.20;81.80;;;;;;4958493;28;20631;-70
2022/09/03 02:07:00;;;;;;;1.17;0.43;;;17.20;81.40;;;;;;4971823;28;20035;-70
2022/09/03 02:09:26;;;;;;;0.70;0.40;;;17.20;81.30;;;;;;4969614;28;20110;-70
2022/09/03 02:12:02;;;;;;;1.00;0.35;;;17.20;81.40;;;;;;4971288;28;20286;-70
2022/09/03 02:14:29;;;;;;;1.83;0.30;;;17.10;81.50;;;;;;4970445;28;20042;-70
2022/09/03 02:16:56;;;;;;;;;;;17.20;81.60;;;;;;4967687;28;20054;-70
2022/09/03 02:19:23;;;;;;;0.45;0.30;;;17.10;82.40;;;;;;4971970;28;19918;-70
2022/09/03 02:21:54;;;;;;;1.98;0.43;;;17.10;81.90;;;;;;4971658;28;20066;-70
2022/09/03 02:24:21;;;;;;;1.52;0.40;;;17.10;82.20;;;;;;4976512;28;20044;-71
2022/09/03 02:26:46;;;;;;;1.20;0.65;;;17.10;82.40;;;;;;4969622;28;20043;-70
2022/09/03 02:29:14;;;;;;;2.28;0.65;;;17.10;82.40;;;;;;4971587;28;20421;-69
2022/09/03 02:31:39;;;;;;;4.65;0.50;;;17.10;82.50;;;;;;4971825;28;20038;-70
2022/09/03 02:34:05;;;;;;;1.33;0.50;;;17.10;82.60;;;;;;4970083;28;20047;-70
2022/09/03 02:36:34;;;;;;;0.50;0.40;;;17.10;82.80;;;;;;4971331;28;20126;-69
2022/09/03 02:39:00;;;;;;;4.43;0.60;;;17.00;83.10;;;;;;4965277;28;20126;-70
2022/09/03 02:41:26;;;;;;;2.72;0.43;;;17.00;83.30;;;;;;4970954;28;20129;-70
2022/09/03 02:44:07;;;;;;;1.42;0.68;;;17.00;83.40;;;;;;4970631;28;20038;-70
2022/09/03 02:46:39;;;;;;;1.10;0.45;;;17.00;83.80;;;;;;4970519;28;20050;-70
2022/09/03 02:49:05;;;;;;;1.33;0.50;;;17.00;84.00;;;;;;4971141;28;20641;-70
2022/09/03 02:51:34;;;;;;;0.82;0.50;;;16.90;83.90;;;;;;4970711;28;20039;-70
2022/09/03 02:54:00;;;;;;;1.58;0.50;;;16.90;84.30;;;;;;4969392;28;20074;-70
2022/09/03 02:56:26;;;;;;;0.73;0.40;;;16.90;84.60;;;;;;4970032;28;20081;-69
2022/09/03 02:58:53;;;;;;;1.50;0.50;;;16.90;84.90;;;;;;4969254;28;20054;-70
2022/09/03 03:01:18;;;;;;;;;;;16.90;84.90;;;;;;4969227;28;20073;-70
2022/09/03 03:03:44;;;;;;;1.52;0.70;;;16.80;86.00;;;;;;4969022;28;19918;-70
2022/09/03 03:06:11;;;;;;;2.08;0.50;;;16.80;85.50;;;;;;4967665;28;20051;-70
2022/09/03 03:08:37;;;;;;;1.98;0.50;;;16.80;86.00;;;;;;4967649;28;20058;-70
2022/09/03 03:11:03;;;;;;;0.88;0.40;;;16.80;86.30;;;;;;4973534;28;20043;-70
2022/09/03 03:13:30;;;;;;;1.88;0.88;;;16.70;86.60;;;;;;4965148;28;20101;-69
2022/09/03 03:16:05;;;;;;;0.75;0.40;;;16.70;86.80;;;;;;4967296;28;20077;-70
2022/09/03 03:18:32;;;;;;;1.13;0.40;;;16.70;87.10;;;;;;4971793;28;20101;-70
2022/09/03 03:21:07;;;;;;;4.03;0.47;;;16.70;87.30;;;;;;4971222;28;20042;-70
2022/09/03 03:23:34;;;;;;;0.90;0.52;;;16.70;87.60;;;;;;4967026;28;20419;-70
2022/09/03 03:26:01;;;;;;;0.82;0.57;;;16.70;87.80;;;;;;4967161;28;20108;-70
2022/09/03 03:28:26;;;;;;;1.85;0.68;;;16.60;88.20;;;;;;4967182;28;20051;-70
2022/09/03 03:30:52;;;;;;;0.57;0.40;;;16.70;88.60;;;;;;4964219;28;20054;-70
2022/09/03 03:33:18;;;;;;;1.50;0.40;;;16.60;88.80;;;;;;4968328;28;20078;-69
2022/09/03 03:35:43;;;;;;;1.15;0.40;;;16.60;89.10;;;;;;4968700;28;20050;-70
2022/09/03 03:38:09;;;;;;;0.98;0.45;;;16.60;89.30;;;;;;4969105;28;20400;-70
2022/09/03 03:40:39;;;;;;;1.33;0.60;;;16.60;89.50;;;;;;4966795;28;20528;-69
2022/09/03 03:43:04;;;;;;;0.60;0.30;;;16.50;89.80;;;;;;4969418;28;20050;-70
2022/09/03 03:45:30;;;;;;;1.50;0.40;;;16.50;90.10;;;;;;4965372;28;20115;-70
2022/09/03 03:47:58;;;;;;;1.15;0.50;;;16.50;90.20;;;;;;4966309;28;20141;-70
2022/09/03 03:50:24;;;;;;;2.30;0.55;;;16.50;90.20;;;;;;4968151;28;20074;-70
2022/09/03 03:52:49;;;;;;;2.30;0.40;;;16.40;90.40;;;;;;4966885;28;20046;-70
2022/09/03 03:55:15;;;;;;;1.23;0.60;;;16.50;90.50;;;;;;4972723;28;20073;-69
2022/09/03 03:57:41;;;;;;;0.90;0.32;;;16.50;90.60;;;;;;4962980;28;20035;-70
2022/09/03 04:00:07;;;;;;;2.05;0.20;;;16.40;90.60;;;;;;4965355;28;20105;-70
2022/09/03 04:02:33;;;;;;;1.25;0.40;;;16.50;90.90;;;;;;4973601;28;20408;-70
2022/09/03 04:04:59;;;;;;;0.80;0.70;;;16.40;91.10;;;;;;4964605;28;20051;-70
2022/09/03 04:07:27;;;;;;;3.08;0.43;;;16.40;91.00;;;;;;4969323;28;20042;-70
2022/09/03 04:09:53;;;;;;;1.33;0.63;;;16.40;91.00;;;;;;4967742;28;20059;-70
2022/09/03 04:12:18;;;;;;;1.02;0.50;;;16.40;91.00;;;;;;4967405;28;20166;-70
2022/09/03 04:14:44;;;;;;;0.93;0.50;;;16.50;91.10;;;;;;4965893;28;20049;-70
2022/09/03 04:17:10;;;;;;;1.55;0.77;;;16.40;91.20;;;;;;4966387;28;20058;-69
2022/09/03 04:19:36;;;;;;;0.70;0.40;;;16.50;91.20;;;;;;4966285;28;20077;-70
2022/09/03 04:22:02;;;;;;;0.73;0.40;;;16.50;91.20;;;;;;4970744;28;20046;-70
2022/09/03 04:24:28;;;;;;;2.10;0.50;;;16.50;91.30;;;;;;4967858;28;20061;-70
2022/09/03 04:26:54;;;;;;;0.55;0.30;;;16.50;91.30;;;;;;4967975;28;20106;-70
2022/09/03 04:29:20;;;;;;;0.68;0.38;;;16.40;91.40;;;;;;4967241;28;20742;-70
2022/09/03 04:34:31;;;;;;;1.02;0.50;;;16.40;91.40;;;;;;4965912;28;20047;-70
2022/09/03 04:36:59;;;;;;;1.50;0.40;;;16.40;91.50;;;;;;4967399;28;20053;-70
2022/09/03 04:39:25;;;;;;;3.75;0.77;;;16.40;91.60;;;;;;4966270;28;20059;-70
2022/09/03 04:41:50;;;;;;;0.95;0.50;;;16.40;91.70;;;;;;4962182;28;20150;-70
2022/09/03 04:44:16;;;;;;;1.25;0.40;;;16.40;91.80;;;;;;4966212;28;20062;-70
2022/09/03 04:46:42;;;;;;;1.42;0.50;;;16.30;91.90;;;;;;4965562;28;20386;-70
2022/09/03 04:49:08;;;;;;;1.15;0.40;;;16.30;91.90;;;;;;4966202;28;20042;-69
2022/09/03 04:51:36;;;;;;;1.30;0.50;;;16.30;92.00;;;;;;4964085;28;20050;-69
2022/09/03 04:54:02;;;;;;;1.15;0.55;;;16.30;92.10;;;;;;4964500;28;20648;-70
2022/09/03 04:56:33;;;;;;;0.90;0.28;;;16.30;92.30;;;;;;4967502;28;20031;-69
2022/09/03 04:59:01;;;;;;;2.03;0.52;;;16.30;92.20;;;;;;4966146;28;20078;-69
2022/09/03 05:01:28;;;;;;;1.67;0.50;;;16.20;92.40;;;;;;4967166;28;20353;-69
2022/09/03 05:03:58;;;;;;;0.85;0.50;;;16.20;92.50;;;;;;4970155;28;20525;-69
2022/09/03 05:06:24;;;;;;;0.55;0.40;;;16.20;92.60;;;;;;4971786;28;20042;-69
2022/09/03 05:08:52;;;;;;;1.83;0.60;;;16.10;92.80;;;;;;4968459;28;20045;-69
2022/09/03 05:11:18;;;;;;;4.25;0.60;;;16.10;92.90;;;;;;4970111;28;20134;-69
2022/09/03 05:13:49;;;;;;;3.55;1.02;;;16.10;93.00;;;;;;4971524;28;20048;-69
2022/09/03 05:16:15;;;;;;;1.35;0.60;;;16.10;93.20;;;;;;4971495;28;20046;-69
2022/09/03 05:18:41;;;;;;;0.98;0.43;;;16.10;93.20;;;;;;4970995;28;20038;-69
2022/09/03 05:21:17;;;;;;;2.25;0.65;;;16.10;93.50;;;;;;4970611;28;20535;-70
2022/09/03 05:23:49;;;;;;;0.98;0.60;;;16.10;93.60;;;;;;4965327;28;20423;-69
2022/09/03 05:26:17;;;;;;;1.70;0.60;;;16.00;93.60;;;;;;4995392;22;20049;-76
2022/09/03 05:28:44;;;;;;;1.73;0.70;;;16.00;93.80;;;;;;5020044;28;21272;-75
2022/09/03 05:31:16;;;;;;;2.25;0.60;;;16.00;93.90;;;;;;5014615;28;20046;-76
2022/09/03 05:33:44;;;;;;;5.05;0.70;;;16.00;94.10;;;;;;5017212;28;20045;-75
2022/09/03 05:36:12;;;;;;;1.40;0.60;;;16.00;94.20;;;;;;5021798;28;20132;-76
2022/09/03 05:38:38;;;;;;;1.95;0.60;;;16.00;94.30;;;;;;5021501;28;20041;-76
2022/09/03 05:41:06;;;;;;;1.58;0.55;;;16.00;94.30;;;;;;5031461;28;20496;-76
2022/09/03 05:43:32;;;;;;;4.15;0.73;;;16.00;94.50;;;;;;5020143;28;20386;-76
2022/09/03 05:46:06;;;;;;;1.25;0.75;;;16.00;94.60;;;;;;5014186;28;20252;-76
2022/09/03 05:48:34;;;;;;;1.10;0.50;;;16.00;94.70;;;;;;5022612;28;20507;-76
2022/09/03 05:51:06;;;;;;;1.60;0.70;;;16.00;94.70;;;;;;5027384;28;20057;-76
2022/09/03 05:53:36;;;;;;;1.70;0.95;;;16.00;94.90;;;;;;5023774;28;20057;-76
2022/09/03 05:56:09;;;;;;;1.02;0.60;;;16.00;94.90;;;;;;5016006;28;20046;-76
2022/09/03 05:58:42;;;;;;;2.17;0.95;;;16.00;95.10;;;;;;5017057;28;20074;-76
2022/09/03 06:01:15;;;;;;;0.98;0.50;;;16.00;95.20;;;;;;5014106;28;20042;-76
2022/09/03 06:03:42;;;;;;;1.77;0.60;;;16.00;95.30;;;;;;5011726;28;20107;-76
2022/09/03 06:06:09;;;;;;;1.20;0.70;;;16.00;95.50;;;;;;5022267;28;20118;-76
2022/09/03 06:08:38;;;;;;;1.00;0.45;;;16.00;95.60;;;;;;5019908;28;20092;-76
2022/09/03 06:11:05;;;;;;;2.63;0.45;;;16.00;95.70;;;;;;5021296;28;20050;-75
2022/09/03 06:13:32;;;;;;;4.03;0.70;;;16.00;95.70;;;;;;5023606;28;20112;-76
2022/09/03 06:16:04;;;;;;;2.53;0.88;;;16.10;95.90;;;;;;5019877;28;20048;-76
2022/09/03 06:18:30;;;;;;;1.60;0.63;;;16.10;96.00;;;;;;5018156;28;20072;-76
2022/09/03 06:21:06;;;;;;;1.23;0.60;;;16.10;96.00;;;;;;5017466;28;20045;-75
2022/09/03 06:23:32;;;;;;;0.98;0.57;;;16.10;96.10;;;;;;5021860;28;20119;-75
2022/09/03 06:26:12;;;;;;;2.33;0.73;;;16.10;96.10;;;;;;5003314;28;20089;-75
2022/09/03 06:28:42;;;;;;;1.63;0.80;;;16.20;96.20;;;;;;5020735;28;20037;-75
2022/09/03 06:31:10;;;;;;;3.38;0.68;;;16.20;96.10;;;;;;5015585;28;20065;-76
2022/09/03 06:33:37;;;;;;;4.82;0.98;;;16.20;96.30;;;;;;5018612;28;20033;-76
2022/09/03 06:36:06;;;;;;;1.17;0.70;;;16.20;96.20;;;;;;5016539;28;20037;-75
2022/09/03 06:38:35;;;;;;;2.45;0.80;;;16.20;96.30;;;;;;5016845;28;20083;-75
2022/09/03 06:41:09;;;;;;;1.30;0.70;;;16.30;96.40;;;;;;5015742;28;20049;-76
2022/09/03 06:43:40;;;;;;;1.38;0.60;;;16.30;96.40;;;;;;5015194;28;20136;-76
2022/09/03 06:46:07;;;;;;;1.33;0.80;;;16.30;96.40;;;;;;5017151;28;20050;-76
2022/09/03 06:48:35;;;;;;;1.92;1.05;;;16.30;96.40;;;;;;5015498;28;20060;-75
2022/09/03 06:51:03;;;;;;;2.25;0.70;;;16.30;96.40;;;;;;5024641;28;20115;-76
2022/09/03 06:53:35;;;;;;;1.95;1.00;;;16.40;96.60;;;;;;5015134;28;20038;-75
2022/09/03 06:56:07;;;;;;;1.30;0.70;;;16.40;96.60;;;;;;5012332;28;20133;-76
2022/09/03 06:58:40;;;;;;;1.33;0.70;;;16.40;96.70;;;;;;5018677;28;20506;-76
2022/09/03 07:01:15;;;;;;;1.42;0.73;;;16.50;96.70;;;;;;5015145;28;20455;-75
2022/09/03 07:03:42;;;;;;;2.80;1.40;;;16.50;96.80;;;;;;5023024;28;20106;-75
2022/09/03 07:06:11;;;;;;;1.83;0.77;;;16.50;97.20;;;;;;5019737;28;20130;-76
2022/09/03 07:08:36;;;;;;;4.18;0.98;;;16.50;96.90;;;;;;5020293;28;20041;-76
2022/09/03 07:11:09;;;;;;;2.95;1.00;;;16.60;96.80;;;;;;5019859;28;20065;-75
2022/09/03 07:13:40;;;;;;;1.85;0.60;;;16.70;96.80;;;;;;5018706;28;20076;-75
2022/09/03 07:16:08;;;;;;;1.45;0.80;;;16.70;96.80;;;;;;4995508;28;20121;-75
2022/09/03 07:18:35;;;;;;;1.40;0.70;;;16.80;96.70;;;;;;5022039;28;20052;-76
2022/09/03 07:21:06;;;;;;;1.40;0.88;;;16.90;96.60;;;;;;5022605;28;20046;-76
2022/09/03 07:23:33;;;;;;;1.27;0.60;;;16.90;96.50;;;;;;5015913;28;20033;-76
2022/09/03 07:26:01;;;;;;;1.95;0.77;;;17.00;96.50;;;;;;5011854;28;20448;-76
2022/09/03 07:28:29;;;;;;;3.47;0.80;;;17.00;96.50;;;;;;5020258;28;20064;-76
2022/09/03 07:31:01;;;;;;;2.78;0.75;;;17.10;96.40;;;;;;5013491;28;20183;-76
2022/09/03 07:33:29;;;;;;;1.60;0.90;;;17.20;96.10;;;;;;5016199;28;20072;-75
2022/09/03 07:35:54;;;;;;;1.55;0.70;;;17.20;96.10;;;;;;5012532;28;20398;-76
2022/09/03 07:38:22;;;;;;;3.92;0.80;;;17.30;95.90;;;;;;5023358;28;20045;-75
2022/09/03 07:40:47;;;;;;;1.80;0.77;;;17.30;95.90;;;;;;5020516;28;20426;-75
2022/09/03 07:43:13;;;;;;;1.00;0.60;;;17.40;95.80;;;;;;5012069;28;20136;-75
2022/09/03 07:45:39;;;;;;;1.65;0.70;;;17.50;95.70;;;;;;5016042;28;20045;-75
2022/09/03 07:48:04;;;;;;;1.70;0.70;;;17.60;95.50;;;;;;5021288;28;20041;-75
2022/09/03 07:50:36;;;;;;;2.53;0.80;;;17.70;95.40;;;;;;5017580;28;20045;-75
2022/09/03 07:53:02;;;;;;;1.75;0.98;;;17.70;95.40;;;;;;5009798;28;20486;-74
2022/09/03 07:55:31;;;;;;;4.60;0.80;;;17.70;95.30;;;;;;5018477;28;20038;-78
2022/09/03 07:57:58;;;;;;;2.33;0.70;;;17.80;95.10;;;;;;5016848;28;20037;-75
2022/09/03 08:00:24;;;;;;;1.75;1.08;;;17.80;94.90;;;;;;5015402;28;20072;-75
2022/09/03 08:02:54;;;;;;;1.48;0.70;;;17.90;94.80;;;;;;4998029;28;20092;-75
2022/09/03 08:05:20;;;;;;;1.23;0.63;;;18.00;94.70;;;;;;5014753;28;20041;-74
2022/09/03 08:07:47;;;;;;;1.45;0.63;;;18.10;94.70;;;;;;5020038;28;20499;-74
2022/09/03 08:10:13;;;;;;;2.05;0.60;;;18.20;94.50;;;;;;5020041;28;20057;-75
2022/09/03 08:12:39;;;;;;;1.27;0.70;;;18.20;94.20;;;;;;5014523;28;20069;-75
2022/09/03 08:15:05;;;;;;;1.23;0.63;;;18.30;94.10;;;;;;5014486;28;20095;-74
2022/09/03 08:17:32;;;;;;;1.85;0.75;;;18.40;94.10;;;;;;5017639;28;20046;-74
2022/09/03 08:19:59;;;;;;;2.95;0.80;;;18.40;93.90;;;;;;5016956;28;20041;-74
2022/09/03 08:22:24;;;;;;;;;;;18.60;93.90;;;;;;5019533;28;20128;-76
2022/09/03 08:24:53;;;;;;;1.05;0.60;;;18.60;93.60;;;;;;5018367;28;20020;-76
2022/09/03 08:27:23;;;;;;;3.33;0.60;;;18.70;93.70;;;;;;5014528;28;20049;-75
2022/09/03 08:29:48;;;;;;;3.10;0.82;;;18.70;93.70;;;;;;5016410;28;20049;-75
2022/09/03 08:32:14;;;;;;;2.22;0.60;;;18.90;93.50;;;;;;5016821;28;20526;-74
2022/09/03 08:34:40;;;;;;;2.90;0.75;;;19.00;93.40;;;;;;5016247;28;20442;-74
2022/09/03 08:37:06;;;;;;;1.45;0.65;;;19.00;93.10;;;;;;5018307;28;20064;-74
2022/09/03 08:39:31;;;;;;;;;;;19.10;93.10;;;;;;5021179;28;20102;-74
2022/09/03 08:42:27;;;;;;;2.53;0.80;;;19.10;93.10;;;;;;5020785;28;20011;-75
2022/09/03 08:45:07;;;;;;;0.93;0.60;;;19.20;92.80;;;;;;4986277;28;20482;-74
2022/09/03 08:47:47;;;;;;;3.90;0.80;;;19.30;92.60;;;;;;5018035;28;20135;-76
2022/09/03 08:50:28;;;;;;;1.08;0.70;;;19.50;92.30;;;;;;5015186;28;20103;-74
2022/09/03 08:53:06;;;;;;;1.88;0.63;;;19.50;92.20;;;;;;5018206;28;20395;-75
2022/09/03 08:55:43;;;;;;;2.28;0.70;;;19.60;92.00;;;;;;5016152;28;20041;-75
2022/09/03 08:58:14;;;;;;;1.55;0.60;;;19.70;91.90;;;;;;5018223;28;20371;-76
2022/09/03 09:01:00;;;;;;;1.58;0.80;;;19.70;91.80;;;;;;5013762;28;20566;-75
2022/09/03 09:04:03;;;;;;;1.27;0.70;;;19.80;91.70;;;;;;5013639;28;20099;-75
2022/09/03 09:06:53;;;;;;;1.63;0.68;;;19.90;91.40;;;;;;5017560;28;20037;-73
2022/09/03 09:09:40;;;;;;;1.48;0.70;;;20.00;91.10;;;;;;4998995;28;20164;-75
2022/09/03 09:12:24;;;;;;;3.38;0.73;;;20.00;90.80;;;;;;5016580;28;20119;-74
2022/09/03 09:15:12;;;;;;;1.08;0.65;;;20.10;91.00;;;;;;5019845;28;20052;-74
2022/09/03 09:17:40;;;;;;;3.05;0.60;;;20.20;90.90;;;;;;5015273;28;20087;-75
2022/09/03 09:20:18;;;;;;;1.90;0.60;;;20.30;90.60;;;;;;5016061;28;20049;-74
2022/09/03 09:22:49;;;;;;;2.15;0.82;;;20.40;90.50;;;;;;5021165;28;20041;-74
2022/09/03 09:25:21;;;;;;;1.38;0.75;;;20.60;90.40;;;;;;5018505;28;20054;-74
2022/09/03 09:27:55;;;;;;;1.45;0.77;;;20.70;90.10;;;;;;5013452;28;20072;-74
2022/09/03 09:30:21;;;;;;;1.95;0.60;;;20.80;90.00;;;;;;5011411;28;20099;-75
2022/09/03 09:32:47;;;;;;;2.03;0.77;;;20.80;90.00;;;;;;5015636;28;20046;-75
2022/09/03 09:35:14;;;;;;;5.13;0.70;;;21.00;90.00;;;;;;5015517;28;20513;-74
2022/09/03 09:37:54;;;;;;;2.30;0.70;;;21.10;89.80;;;;;;5009688;28;20049;-74
2022/09/03 09:40:39;;;;;;;3.60;1.10;;;21.20;89.10;;;;;;5017560;28;20109;-75
2022/09/03 09:43:09;;;;;;;3.30;0.77;;;21.40;87.40;;;;;;5016282;28;20331;-74
2022/09/03 09:45:39;;;;;;;1.45;0.60;;;21.50;87.70;;;;;;5017311;28;20641;-75
2022/09/03 09:48:16;;;;;;;2.05;0.60;;;21.60;87.10;;;;;;5017154;28;20105;-74
2022/09/03 09:50:42;;;;;;;2.10;0.77;;;21.70;86.80;;;;;;5024296;28;20048;-75
2022/09/03 09:53:13;;;;;;;1.58;0.70;;;21.80;86.60;;;;;;5022225;28;20575;-74
2022/09/03 09:56:01;;;;;;;2.45;0.80;;;21.90;85.80;;;;;;5021590;28;20130;-73
2022/09/03 09:58:29;;;;;;;1.48;0.70;;;22.00;84.60;;;;;;5010775;28;20046;-73
2022/09/03 10:00:58;;;;;;;3.15;0.70;;;22.10;84.70;;;;;;5020063;28;20391;-75
2022/09/03 10:03:24;;;;;;;2.10;0.68;;;22.20;84.00;;;;;;5020212;28;20041;-74
2022/09/03 10:08:53;;;;;;;1.75;0.50;;;22.30;81.80;;;;;;5022432;28;19921;-75
2022/09/03 10:11:22;;;;;;;2.22;0.70;;;22.40;82.60;;;;;;5014909;28;20383;-76
2022/09/03 10:13:49;;;;;;;1.75;0.57;;;22.50;82.50;;;;;;5016683;28;20387;-75
2022/09/03 10:16:23;;;;;;;1.85;0.70;;;22.60;82.00;;;;;;5020892;28;20118;-75
2022/09/03 10:19:10;;;;;;;1.02;0.40;;;22.70;80.90;;;;;;5016178;28;20182;-75
2022/09/03 10:21:48;;;;;;;1.50;0.50;;;22.80;79.30;;;;;;5021755;28;20043;-75
2022/09/03 10:24:28;;;;;;;2.33;0.93;;;22.90;78.60;;;;;;5023334;28;20083;-76
2022/09/03 10:26:54;;;;;;;2.25;0.98;;;23.10;78.60;;;;;;5017809;28;20034;-75
2022/09/03 10:29:20;;;;;;;;;;;23.20;78.30;;;;;;5021670;28;20415;-75
2022/09/03 10:32:02;;;;;;;0.63;0.50;;;23.30;78.00;;;;;;5022760;28;19929;-76
2022/09/03 10:34:44;;;;;;;0.85;0.40;;;23.40;77.60;;;;;;5014360;28;20053;-75
2022/09/03 10:37:10;;;;;;;0.90;0.50;;;23.50;76.10;;;;;;5013166;28;20041;-75
2022/09/03 10:39:44;;;;;;;;;;;23.60;75.00;;;;;;5022004;28;20499;-74
2022/09/03 10:42:44;;;;;;;1.67;0.60;;;23.80;74.20;;;;;;5013820;28;20316;-76
2022/09/03 10:45:23;;;;;;;1.63;0.70;;;23.80;74.50;;;;;;5015041;28;20322;-75
2022/09/03 10:48:27;;;;;;;5.00;0.70;;;23.90;72.00;;;;;;5020705;28;20045;-75
2022/09/03 10:50:57;;;;;;;1.17;0.47;;;24.00;72.30;;;;;;5015454;28;20052;-75
2022/09/03 10:53:35;;;;;;;1.02;0.40;;;24.10;71.40;;;;;;5012999;28;20080;-75
2022/09/03 10:56:05;;;;;;;1.17;0.50;;;24.10;70.40;;;;;;5017417;28;20345;-75
2022/09/03 10:58:37;;;;;;;1.08;0.50;;;24.30;69.50;;;;;;5023937;28;20379;-75
2022/09/03 11:01:21;;;;;;;1.38;0.68;;;24.30;68.80;;;;;;4996386;28;20128;-75
2022/09/03 11:04:21;;;;;;;1.38;0.50;;;24.40;68.30;;;;;;5021055;28;20430;-75
2022/09/03 11:06:50;;;;;;;3.53;0.63;;;24.50;68.80;;;;;;5020147;28;20072;-75
2022/09/03 11:09:19;;;;;;;1.13;0.50;;;24.60;68.20;;;;;;5016913;28;20140;-75
2022/09/03 11:11:54;;;;;;;0.95;0.45;;;24.80;67.70;;;;;;5021780;28;20042;-75
2022/09/03 11:14:42;;;;;;;1.92;0.63;;;24.90;66.80;;;;;;5022714;28;20073;-75
2022/09/03 11:17:28;;;;;;;2.22;0.60;;;25.00;65.50;;;;;;5019290;28;20458;-76
2022/09/03 11:20:15;;;;;;;1.08;0.55;;;25.10;65.00;;;;;;5020746;28;20183;-75
2022/09/03 11:22:43;;;;;;;1.25;0.68;;;25.20;63.50;;;;;;5022443;28;20049;-76
2022/09/03 11:25:12;;;;;;;1.30;0.38;;;25.30;63.50;;;;;;5017058;28;20388;-76
2022/09/03 11:28:10;;;;;;;1.73;0.47;;;25.30;62.60;;;;;;5046156;22;20124;-89
2022/09/03 11:31:16;;;;;;;0.65;0.45;;;25.40;60.50;;;;;;4999558;28;20135;-87
2022/09/03 11:33:52;;;;;;;2.47;0.70;;;25.30;60.80;;;;;;4994016;28;20057;-85
2022/09/03 11:36:37;;;;;;;4.68;0.75;;;25.30;61.30;;;;;;5007492;28;20103;-86
2022/09/03 11:39:26;;;;;;;1.20;0.75;;;25.30;61.10;;;;;;5015231;28;20141;-85
2022/09/03 11:42:08;;;;;;;0.88;0.40;;;25.30;60.60;;;;;;4998720;28;20034;-86
2022/09/03 11:44:36;;;;;;;1.17;0.40;;;25.40;61.30;;;;;;4993861;28;20071;-85
2022/09/03 11:47:32;;;;;;;1.52;0.52;;;25.40;60.10;;;;;;4997007;28;20076;-88
2022/09/03 11:50:08;;;;;;;1.33;0.63;;;25.50;60.00;;;;;;5002317;28;20069;-84
2022/09/03 11:52:39;;;;;;;3.92;0.68;;;25.50;60.40;;;;;;4982439;28;20070;-86
2022/09/03 11:55:06;;;;;;;0.80;0.52;;;25.60;60.30;;;;;;4984025;28;20038;-87
2022/09/03 11:57:40;;;;;;;2.92;0.63;;;25.70;60.90;;;;;;5010189;28;20158;-85
2022/09/03 12:00:20;;;;;;;1.13;0.60;;;25.80;59.10;;;;;;4986897;28;20054;-86
2022/09/03 12:02:53;;;;;;;2.03;0.98;;;25.80;58.40;;;;;;4983597;28;20042;-86
2022/09/03 12:06:07;;;;;;;2.70;0.50;;;25.90;57.90;;;;;;4983131;28;20642;-86
2022/09/03 12:08:54;;;;;;;1.50;0.70;;;26.00;57.60;;;;;;4993735;28;20045;-86
2022/09/03 12:11:55;;;;;;;1.98;0.80;;;26.00;57.50;;;;;;4995443;28;20046;-87
2022/09/03 12:14:35;;;;;;;1.00;0.60;;;26.10;56.90;;;;;;4995388;28;20046;-85
2022/09/03 12:17:19;;;;;;;3.05;0.50;;;26.20;56.70;;;;;;4982607;28;20046;-86
2022/09/03 12:23:33;;;;;;;2.58;0.70;;;26.40;56.30;;;;;;5026078;22;20395;-79
2022/09/03 12:26:20;;;;;;;1.20;0.63;;;26.40;55.80;;;;;;5024901;28;20440;-78
2022/09/03 12:28:49;;;;;;;2.55;0.60;;;26.50;55.10;;;;;;5024832;28;20707;-79
2022/09/03 12:31:22;;;;;;;1.55;0.45;;;26.60;55.10;;;;;;5025539;28;20041;-79
2022/09/03 12:33:50;;;;;;;0.65;0.38;;;26.60;53.90;;;;;;5026182;28;20033;-79
2022/09/03 12:36:16;;;;;;;2.20;0.70;;;26.70;53.90;;;;;;5025785;28;20217;-79
2022/09/03 12:38:42;;;;;;;1.95;0.70;;;26.70;53.60;;;;;;5022834;28;20044;-79
2022/09/03 12:41:23;;;;;;;1.02;0.60;;;26.80;53.70;;;;;;5024035;28;20049;-78
2022/09/03 12:43:57;;;;;;;2.55;0.32;;;26.90;53.10;;;;;;5028551;28;20420;-78
2022/09/03 12:46:25;;;;;;;1.63;0.52;;;27.00;53.40;;;;;;5024473;28;20052;-79
2022/09/03 12:49:02;;;;;;;0.75;0.50;;;27.00;53.00;;;;;;5027783;28;20067;-79
2022/09/03 12:51:37;;;;;;;2.35;0.60;;;27.10;52.50;;;;;;5022853;28;20176;-77
2022/09/03 12:54:06;;;;;;;0.95;0.63;;;27.10;52.40;;;;;;5017468;28;20049;-79
2022/09/03 12:56:34;;;;;;;1.42;0.40;;;27.20;52.20;;;;;;5038231;28;20088;-78
2022/09/03 12:59:10;;;;;;;3.95;0.40;;;27.20;52.10;;;;;;5023773;28;20056;-79
2022/09/03 13:01:48;;;;;;;1.52;0.60;;;27.30;51.50;;;;;;5025099;28;20060;-78
2022/09/03 13:04:38;;;;;;;2.28;0.57;;;27.40;50.80;;;;;;5025822;28;20045;-79
2022/09/03 13:07:14;;;;;;;3.08;0.60;;;27.40;51.40;;;;;;5021160;28;20050;-80
2022/09/03 13:09:41;;;;;;;1.45;0.50;;;27.50;51.10;;;;;;5024394;28;20304;-79
2022/09/03 13:12:27;;;;;;;0.73;0.38;;;27.50;51.20;;;;;;5029308;28;20045;-78
2022/09/03 13:14:52;;;;;;;1.80;0.60;;;27.60;50.80;;;;;;5019017;28;20037;-79
2022/09/03 13:17:51;;;;;;;1.00;0.50;;;27.60;50.50;;;;;;5014652;28;20049;-79
2022/09/03 13:20:30;;;;;;;2.53;0.55;;;27.70;50.60;;;;;;5022307;28;20080;-79
2022/09/03 13:23:10;;;;;;;1.08;0.43;;;27.80;50.50;;;;;;5027770;28;20650;-78
2022/09/03 13:25:51;;;;;;;0.95;0.68;;;27.90;49.50;;;;;;5022914;28;20512;-79
2022/09/03 13:28:28;;;;;;;3.35;0.70;;;27.90;49.90;;;;;;5027424;28;20065;-78